createdAt,value
2019-01-30T00:01:42.009Z,-1.90
2019-01-30T00:04:09.496Z,-1.89
2019-01-30T00:06:37.330Z,-1.92
2019-01-30T00:09:11.050Z,-1.92
2019-01-30T00:11:38.776Z,-1.97
2019-01-30T00:14:10.404Z,-1.97
2019-01-30T00:16:38.310Z,-1.94
2019-01-30T00:19:06.258Z,-1.89
2019-01-30T00:21:33.558Z,-1.93
2019-01-30T00:24:01.178Z,-1.87
2019-01-30T00:26:28.972Z,-1.99
2019-01-30T00:28:56.967Z,-2.02
2019-01-30T00:31:24.356Z,-2.03
2019-01-30T00:33:51.870Z,-2.01
2019-01-30T00:36:19.217Z,-2.03
2019-01-30T00:38:47.359Z,-2.09
2019-01-30T00:41:14.588Z,-2.08
2019-01-30T00:43:42.124Z,-2.10
2019-01-30T00:46:09.682Z,-2.09
2019-01-30T00:48:37.384Z,-2.02
2019-01-30T00:51:04.770Z,-1.95
2019-01-30T00:53:32.952Z,-1.99
2019-01-30T00:56:00.360Z,-2.05
2019-01-30T00:58:27.618Z,-2.00
2019-01-30T01:00:58.254Z,-1.95
2019-01-30T01:03:25.902Z,-2.06
2019-01-30T01:05:53.782Z,-2.10
2019-01-30T01:08:21.951Z,-2.09
2019-01-30T01:10:49.768Z,-2.11
2019-01-30T01:13:17.585Z,-2.08
2019-01-30T01:15:44.935Z,-2.09
2019-01-30T01:18:12.807Z,-2.12
2019-01-30T01:20:40.887Z,-2.16
2019-01-30T01:23:08.609Z,-2.14
2019-01-30T01:25:36.358Z,-2.19
2019-01-30T01:28:04.043Z,-2.18
2019-01-30T01:30:31.683Z,-2.26
2019-01-30T01:32:59.454Z,-2.28
2019-01-30T01:35:26.709Z,-2.32
2019-01-30T01:37:54.569Z,-2.35
2019-01-30T01:40:22.584Z,-2.41
2019-01-30T01:42:50.843Z,-2.42
2019-01-30T01:45:21.192Z,-2.44
2019-01-30T01:47:48.846Z,-2.44
2019-01-30T01:50:18.510Z,-2.40
2019-01-30T01:52:46.246Z,-2.43
2019-01-30T01:55:13.790Z,-2.48
2019-01-30T01:57:41.265Z,-2.46
2019-01-30T02:00:13.418Z,-2.45
2019-01-30T02:02:40.800Z,-2.55
2019-01-30T02:05:11.958Z,-2.53
2019-01-30T02:07:39.906Z,-2.54
2019-01-30T02:10:09.271Z,-2.52
2019-01-30T02:12:36.771Z,-2.36
2019-01-30T02:15:07.338Z,-2.42
2019-01-30T02:17:35.312Z,-2.38
2019-01-30T02:20:04.014Z,-2.37
2019-01-30T02:22:31.541Z,-2.37
2019-01-30T02:24:59.112Z,-2.35
2019-01-30T02:27:26.933Z,-2.34
2019-01-30T02:29:55.081Z,-2.32
2019-01-30T02:32:22.899Z,-2.30
2019-01-30T02:34:50.456Z,-2.30
2019-01-30T02:37:17.847Z,-2.34
2019-01-30T02:39:45.371Z,-2.37
2019-01-30T02:42:13.380Z,-2.38
2019-01-30T02:44:40.762Z,-2.40
2019-01-30T02:47:08.316Z,-2.40
2019-01-30T02:49:36.117Z,-2.43
2019-01-30T02:52:04.033Z,-2.47
2019-01-30T02:54:31.564Z,-2.45
2019-01-30T02:56:58.859Z,-2.40
2019-01-30T02:59:26.638Z,-2.34
2019-01-30T03:02:10.878Z,-2.32
2019-01-30T03:04:38.322Z,-2.35
2019-01-30T03:07:05.777Z,-2.26
2019-01-30T03:09:33.194Z,-2.30
2019-01-30T03:12:00.682Z,-2.30
2019-01-30T03:14:28.400Z,-2.23
2019-01-30T03:16:56.530Z,-2.29
2019-01-30T03:19:24.474Z,-2.24
2019-01-30T03:21:52.236Z,-2.24
2019-01-30T03:24:19.757Z,-2.16
2019-01-30T03:26:47.503Z,-2.22
2019-01-30T03:29:15.115Z,-2.24
2019-01-30T03:31:42.351Z,-2.23
2019-01-30T03:34:09.579Z,-2.27
2019-01-30T03:36:37.120Z,-2.24
2019-01-30T03:39:06.748Z,-2.21
2019-01-30T03:41:34.863Z,-2.17
2019-01-30T03:44:03.446Z,-2.14
2019-01-30T03:46:30.829Z,-2.14
2019-01-30T03:48:58.503Z,-2.14
2019-01-30T03:51:25.969Z,-2.01
2019-01-30T03:53:54.039Z,-2.01
2019-01-30T03:56:21.731Z,-2.05
2019-01-30T03:58:49.493Z,-1.98
2019-01-30T04:01:26.456Z,-1.97
2019-01-30T04:03:46.817Z,-1.97
2019-01-30T04:06:14.210Z,-1.94
2019-01-30T04:08:41.615Z,-1.96
2019-01-30T04:11:09.408Z,-1.92
2019-01-30T04:13:37.290Z,-1.86
2019-01-30T04:16:05.006Z,-1.83
2019-01-30T04:18:32.756Z,-1.86
2019-01-30T04:21:00.640Z,-1.79
2019-01-30T04:23:27.904Z,-1.85
2019-01-30T04:25:55.296Z,-1.84
2019-01-30T04:28:22.828Z,-1.81
2019-01-30T04:30:50.291Z,-1.80
2019-01-30T04:33:21.333Z,-1.75
2019-01-30T04:35:49.488Z,-1.78
2019-01-30T04:38:17.377Z,-1.75
2019-01-30T04:40:45.557Z,-1.74
2019-01-30T04:43:13.134Z,-1.65
2019-01-30T04:45:40.287Z,-1.62
2019-01-30T04:48:07.886Z,-1.59
2019-01-30T04:50:35.622Z,-1.49
2019-01-30T04:53:03.736Z,-1.52
2019-01-30T04:55:31.012Z,-1.49
2019-01-30T04:57:58.534Z,-1.42
2019-01-30T05:00:26.483Z,-1.44
2019-01-30T05:02:54.076Z,-1.40
2019-01-30T05:05:21.617Z,-1.35
2019-01-30T05:07:48.868Z,-1.27
2019-01-30T05:10:16.734Z,-1.33
2019-01-30T05:12:44.216Z,-1.25
2019-01-30T05:15:14.883Z,-1.24
2019-01-30T05:17:42.385Z,-1.19
2019-01-30T05:20:11.945Z,-1.12
2019-01-30T05:22:39.338Z,-1.12
2019-01-30T05:25:07.248Z,-1.07
2019-01-30T05:27:34.737Z,-1.03
2019-01-30T05:30:02.440Z,-0.99
2019-01-30T05:32:29.684Z,-0.99
2019-01-30T05:34:57.069Z,-0.97
2019-01-30T05:37:24.625Z,-0.90
2019-01-30T05:39:52.118Z,-0.93
2019-01-30T05:42:19.747Z,-0.89
2019-01-30T05:44:47.679Z,-0.87
2019-01-30T05:47:16.142Z,-0.85
2019-01-30T05:49:43.589Z,-0.79
2019-01-30T05:52:10.976Z,-0.80
2019-01-30T05:54:38.263Z,-0.74
2019-01-30T05:57:05.743Z,-0.63
2019-01-30T05:59:33.144Z,-0.59
2019-01-30T06:02:11.475Z,-0.65
2019-01-30T06:04:30.374Z,-0.64
2019-01-30T06:06:57.914Z,-0.60
2019-01-30T06:09:25.411Z,-0.65
2019-01-30T06:11:53.621Z,-0.60
2019-01-30T06:14:21.437Z,-0.57
2019-01-30T06:16:49.144Z,-0.55
2019-01-30T06:19:16.983Z,-0.54
2019-01-30T06:21:44.678Z,-0.50
2019-01-30T06:24:12.477Z,-0.48
2019-01-30T06:26:40.063Z,-0.45
2019-01-30T06:29:07.579Z,-0.45
2019-01-30T06:31:35.071Z,-0.44
2019-01-30T06:34:02.462Z,-0.41
2019-01-30T06:36:29.890Z,-0.36
2019-01-30T06:38:57.116Z,-0.33
2019-01-30T06:41:25.269Z,-0.27
2019-01-30T06:43:53.037Z,-0.29
2019-01-30T06:46:20.400Z,-0.31
2019-01-30T06:48:47.824Z,-0.33
2019-01-30T06:51:15.871Z,-0.32
2019-01-30T06:53:43.665Z,-0.30
2019-01-30T06:56:11.014Z,-0.36
2019-01-30T06:58:38.271Z,-0.36
2019-01-30T07:01:05.930Z,-0.29
2019-01-30T07:03:35.480Z,-0.28
2019-01-30T07:06:03.245Z,-0.28
2019-01-30T07:08:30.918Z,-0.24
2019-01-30T07:10:58.367Z,-0.25
2019-01-30T07:13:25.741Z,-0.24
2019-01-30T07:15:52.863Z,-0.33
2019-01-30T07:18:20.191Z,-0.28
2019-01-30T07:20:48.122Z,-0.29
2019-01-30T07:23:15.819Z,-0.19
2019-01-30T07:25:43.570Z,-0.31
2019-01-30T07:28:10.998Z,-0.24
2019-01-30T07:30:39.381Z,-0.26
2019-01-30T07:33:07.447Z,-0.22
2019-01-30T07:35:35.330Z,-0.24
2019-01-30T07:38:03.450Z,-0.24
2019-01-30T07:43:13.649Z,-0.21
2019-01-30T07:46:00.124Z,-0.20
2019-01-30T07:48:29.151Z,-0.21
2019-01-30T07:50:57.544Z,-0.03
2019-01-30T07:53:26.300Z,-0.06
2019-01-30T07:55:54.368Z,-0.03
2019-01-30T07:58:22.359Z,-0.09
2019-01-30T08:00:50.540Z,-0.12
2019-01-30T08:03:18.661Z,-0.12
2019-01-30T08:05:46.792Z,-0.15
2019-01-30T08:08:14.842Z,-0.18
2019-01-30T08:10:51.174Z,-0.16
2019-01-30T08:13:20.556Z,-0.15
2019-01-30T08:15:48.686Z,-0.09
2019-01-30T08:18:17.083Z,-0.03
2019-01-30T08:20:45.773Z,0.03
2019-01-30T08:23:13.964Z,0.01
2019-01-30T08:25:41.945Z,-0.01
2019-01-30T08:28:10.904Z,-0.04
2019-01-30T08:30:39.524Z,0.02
2019-01-30T08:33:08.137Z,0.02
2019-01-30T08:35:36.301Z,0.12
2019-01-30T08:38:22.423Z,0.14
2019-01-30T08:40:50.300Z,0.18
2019-01-30T08:43:18.627Z,0.21
2019-01-30T08:45:46.904Z,0.19
2019-01-30T08:48:15.114Z,0.29
2019-01-30T08:50:43.167Z,0.31
2019-01-30T08:53:11.722Z,0.30
2019-01-30T08:55:40.074Z,0.28
2019-01-30T08:58:08.714Z,0.45
2019-01-30T09:00:37.031Z,0.27
2019-01-30T09:03:14.464Z,0.40
2019-01-30T09:05:36.086Z,0.33
2019-01-30T09:08:04.890Z,0.38
2019-01-30T09:10:32.841Z,0.43
2019-01-30T09:13:01.133Z,0.33
2019-01-30T09:15:29.897Z,0.36
2019-01-30T09:17:57.971Z,0.40
2019-01-30T09:20:26.689Z,0.49
2019-01-30T09:22:54.830Z,0.54
2019-01-30T09:25:28.280Z,0.41
2019-01-30T09:27:56.909Z,0.46
2019-01-30T09:30:39.658Z,0.47
2019-01-30T09:33:10.519Z,0.55
2019-01-30T09:35:38.912Z,0.43
2019-01-30T09:38:13.301Z,0.47
2019-01-30T09:40:41.596Z,0.48
2019-01-30T09:43:11.469Z,0.51
2019-01-30T09:45:39.678Z,0.52
2019-01-30T09:48:11.691Z,0.49
2019-01-30T09:50:40.081Z,0.51
2019-01-30T09:53:31.266Z,0.54
2019-01-30T09:56:01.722Z,0.56
2019-01-30T09:58:34.628Z,0.64
2019-01-30T10:01:09.338Z,0.56
2019-01-30T10:05:01.674Z,0.58
2019-01-30T10:07:11.615Z,0.55
2019-01-30T10:09:39.955Z,0.63
2019-01-30T10:12:29.589Z,0.57
2019-01-30T10:15:08.004Z,0.63
2019-01-30T10:18:15.489Z,0.61
2019-01-30T10:21:17.767Z,0.63
2019-01-30T10:24:13.478Z,0.64
2019-01-30T10:26:36.654Z,0.70
2019-01-30T10:29:05.373Z,0.68
2019-01-30T10:31:39.595Z,0.65
2019-01-30T10:34:07.775Z,0.69
2019-01-30T10:36:35.095Z,0.69
2019-01-30T10:39:06.783Z,0.74
2019-01-30T10:41:35.015Z,0.73
2019-01-30T10:44:02.487Z,0.74
2019-01-30T10:46:30.010Z,0.78
2019-01-30T10:48:57.841Z,0.76
2019-01-30T10:51:25.305Z,0.73
2019-01-30T10:53:52.697Z,0.74
2019-01-30T10:56:20.085Z,0.75
2019-01-30T10:58:47.691Z,0.74
2019-01-30T11:01:15.583Z,0.77
2019-01-30T11:03:43.916Z,0.76
2019-01-30T11:06:11.567Z,0.83
2019-01-30T11:08:38.695Z,0.80
2019-01-30T11:11:07.859Z,0.80
2019-01-30T11:13:35.662Z,0.83
2019-01-30T11:16:03.713Z,0.85
2019-01-30T11:18:31.678Z,0.83
2019-01-30T11:20:59.201Z,0.85
2019-01-30T11:23:27.111Z,0.82
2019-01-30T11:25:56.989Z,0.84
2019-01-30T11:28:24.533Z,0.84
2019-01-30T11:30:51.817Z,0.93
2019-01-30T11:33:19.416Z,0.94
2019-01-30T11:35:46.759Z,0.90
2019-01-30T11:38:14.861Z,0.91
2019-01-30T11:40:42.291Z,0.89
2019-01-30T11:43:10.340Z,0.97
2019-01-30T11:45:43.367Z,0.99
2019-01-30T11:48:10.879Z,1.02
2019-01-30T11:50:40.186Z,0.99
2019-01-30T11:53:08.390Z,1.02
2019-01-30T11:55:35.904Z,1.07
2019-01-30T11:58:04.228Z,1.09
2019-01-30T12:00:37.321Z,1.14
2019-01-30T12:03:05.010Z,1.15
2019-01-30T12:05:35.621Z,1.22
2019-01-30T12:08:04.005Z,1.23
2019-01-30T12:10:31.818Z,1.28
2019-01-30T12:12:59.644Z,1.36
2019-01-30T12:15:27.804Z,1.39
2019-01-30T12:17:55.009Z,1.43
2019-01-30T12:20:22.325Z,1.45
2019-01-30T12:22:49.965Z,1.52
2019-01-30T12:25:19.038Z,1.51
2019-01-30T12:27:50.909Z,1.60
2019-01-30T12:30:21.654Z,1.59
2019-01-30T12:32:49.317Z,1.65
2019-01-30T12:35:17.330Z,1.64
2019-01-30T12:37:45.833Z,1.72
2019-01-30T12:40:15.875Z,1.69
2019-01-30T12:42:43.892Z,1.76
2019-01-30T12:45:22.380Z,1.77
2019-01-30T12:47:50.564Z,1.76
2019-01-30T12:50:18.503Z,1.82
2019-01-30T12:52:45.800Z,1.83
2019-01-30T12:55:13.714Z,1.81
2019-01-30T12:57:41.159Z,1.84
2019-01-30T13:00:22.145Z,1.82
2019-01-30T13:02:50.551Z,1.82
2019-01-30T13:05:20.378Z,1.77
2019-01-30T13:07:47.729Z,1.81
2019-01-30T13:10:15.558Z,1.85
2019-01-30T13:12:43.232Z,1.78
2019-01-30T13:15:14.005Z,1.86
2019-01-30T13:17:42.083Z,1.84
2019-01-30T13:20:13.650Z,1.83
2019-01-30T13:22:41.169Z,1.83
2019-01-30T13:25:09.041Z,1.81
2019-01-30T13:27:36.627Z,1.84
2019-01-30T13:30:10.455Z,1.89
2019-01-30T13:32:37.730Z,1.95
2019-01-30T13:35:09.455Z,1.95
2019-01-30T13:37:36.906Z,1.99
2019-01-30T13:40:09.883Z,2.04
2019-01-30T13:42:37.318Z,2.08
2019-01-30T13:45:07.406Z,2.14
2019-01-30T13:47:34.933Z,2.16
2019-01-30T13:50:04.899Z,2.11
2019-01-30T13:52:32.698Z,2.14
2019-01-30T13:55:00.948Z,2.14
2019-01-30T13:57:28.918Z,2.14
2019-01-30T13:59:56.902Z,2.19
2019-01-30T14:02:24.969Z,2.17
2019-01-30T14:04:59.278Z,2.24
2019-01-30T14:07:21.661Z,2.23
2019-01-30T14:09:49.079Z,2.18
2019-01-30T14:12:16.551Z,2.22
2019-01-30T14:14:43.916Z,2.24
2019-01-30T14:17:11.503Z,2.25
2019-01-30T14:19:39.401Z,2.27
2019-01-30T14:22:07.849Z,2.24
2019-01-30T14:24:35.358Z,2.30
2019-01-30T14:27:03.218Z,2.23
2019-01-30T14:29:30.718Z,2.21
2019-01-30T14:31:58.103Z,2.27
2019-01-30T14:34:25.674Z,2.26
2019-01-30T14:36:53.338Z,2.22
2019-01-30T14:39:20.743Z,2.23
2019-01-30T14:41:48.333Z,2.25
2019-01-30T14:44:15.466Z,2.21
2019-01-30T14:46:42.785Z,2.17
2019-01-30T14:49:10.250Z,2.13
2019-01-30T14:51:37.632Z,2.12
2019-01-30T14:54:05.151Z,2.17
2019-01-30T14:56:32.714Z,2.17
2019-01-30T14:59:00.474Z,2.15
2019-01-30T15:01:27.957Z,2.07
2019-01-30T15:03:55.958Z,2.07
2019-01-30T15:06:23.349Z,2.01
2019-01-30T15:08:50.765Z,2.01
2019-01-30T15:11:18.646Z,1.96
2019-01-30T15:13:46.231Z,2.01
2019-01-30T15:16:14.167Z,2.00
2019-01-30T15:18:41.792Z,2.02
2019-01-30T15:21:09.288Z,2.01
2019-01-30T15:23:37.212Z,2.01
2019-01-30T15:26:05.265Z,2.00
2019-01-30T15:28:32.767Z,2.04
2019-01-30T15:31:00.324Z,1.95
2019-01-30T15:33:27.800Z,1.90
2019-01-30T15:35:55.693Z,1.95
2019-01-30T15:38:23.098Z,1.84
2019-01-30T15:40:50.962Z,1.87
2019-01-30T15:43:18.522Z,1.83
2019-01-30T15:45:45.934Z,1.89
2019-01-30T15:48:13.849Z,1.84
2019-01-30T15:50:42.504Z,1.86
2019-01-30T15:53:13.732Z,1.77
2019-01-30T15:55:41.854Z,1.78
2019-01-30T15:58:10.874Z,1.81
2019-01-30T16:00:48.363Z,1.75
2019-01-30T16:03:16.155Z,1.72
2019-01-30T16:05:45.216Z,1.75
2019-01-30T16:08:12.902Z,1.77
2019-01-30T16:10:40.594Z,1.71
2019-01-30T16:13:08.350Z,1.70
2019-01-30T16:15:46.862Z,1.71
2019-01-30T16:18:14.486Z,1.77
2019-01-30T16:20:42.913Z,1.70
2019-01-30T16:23:10.858Z,1.67
2019-01-30T16:25:38.379Z,1.72
2019-01-30T16:28:06.469Z,1.67
2019-01-30T16:30:33.819Z,1.91
2019-01-30T16:33:01.330Z,1.63
2019-01-30T16:35:29.842Z,1.65
2019-01-30T16:37:57.310Z,1.63
2019-01-30T16:40:25.873Z,1.59
2019-01-30T16:42:54.435Z,1.58
2019-01-30T16:45:24.521Z,1.66
2019-01-30T16:47:52.417Z,1.73
2019-01-30T16:50:20.156Z,1.61
2019-01-30T16:52:47.594Z,1.64
2019-01-30T16:55:16.562Z,1.74
2019-01-30T16:57:44.522Z,1.68
2019-01-30T17:00:28.497Z,1.62
2019-01-30T17:02:56.032Z,1.54
2019-01-30T17:05:24.230Z,1.55
2019-01-30T17:07:52.050Z,1.47
2019-01-30T17:10:19.953Z,1.48
2019-01-30T17:12:47.763Z,1.48
2019-01-30T17:15:18.594Z,1.55
2019-01-30T17:17:46.340Z,1.47
2019-01-30T17:20:23.117Z,1.51
2019-01-30T17:22:50.774Z,1.44
2019-01-30T17:25:19.117Z,1.53
2019-01-30T17:27:46.561Z,1.60
2019-01-30T17:30:18.512Z,1.50
2019-01-30T17:32:46.352Z,1.41
2019-01-30T17:35:14.330Z,1.55
2019-01-30T17:37:42.067Z,1.52
2019-01-30T17:40:14.840Z,1.57
2019-01-30T17:42:42.899Z,1.49
2019-01-30T17:45:10.870Z,1.44
2019-01-30T17:47:38.217Z,1.32
2019-01-30T17:50:07.620Z,1.44
2019-01-30T17:52:35.305Z,1.58
2019-01-30T17:55:04.545Z,1.47
2019-01-30T17:57:32.473Z,1.46
2019-01-30T18:00:00.485Z,1.42
2019-01-30T18:02:27.955Z,1.69
2019-01-30T18:04:55.251Z,1.71
2019-01-30T18:07:22.834Z,1.59
2019-01-30T18:09:53.202Z,1.44
2019-01-30T18:12:20.570Z,1.58
2019-01-30T18:14:48.685Z,1.44
2019-01-30T18:17:16.633Z,1.45
2019-01-30T18:19:44.206Z,1.59
2019-01-30T18:22:11.837Z,1.70
2019-01-30T18:24:39.078Z,1.65
2019-01-30T18:27:06.815Z,1.54
2019-01-30T18:29:34.342Z,1.61
2019-01-30T18:32:02.315Z,1.42
2019-01-30T18:34:30.145Z,1.42
2019-01-30T18:36:57.669Z,1.47
2019-01-30T18:39:25.073Z,1.38
2019-01-30T18:41:52.235Z,1.29
2019-01-30T18:44:20.380Z,1.32
2019-01-30T18:46:47.773Z,1.19
2019-01-30T18:49:15.153Z,1.42
2019-01-30T18:51:42.913Z,1.32
2019-01-30T18:54:10.634Z,1.24
2019-01-30T18:56:42.094Z,1.19
2019-01-30T18:59:09.364Z,1.22
2019-01-30T19:01:37.249Z,1.25
2019-01-30T19:04:05.342Z,1.22
2019-01-30T19:06:32.971Z,1.29
2019-01-30T19:09:00.407Z,1.29
2019-01-30T19:11:28.443Z,1.34
2019-01-30T19:13:55.594Z,1.30
2019-01-30T19:16:23.190Z,1.30
2019-01-30T19:18:50.343Z,1.32
2019-01-30T19:21:17.987Z,1.24
2019-01-30T19:23:45.681Z,1.18
2019-01-30T19:26:13.665Z,1.16
2019-01-30T19:28:41.474Z,1.17
2019-01-30T19:31:08.857Z,1.06
2019-01-30T19:33:36.407Z,1.12
2019-01-30T19:36:05.734Z,1.00
2019-01-30T19:38:33.290Z,1.03
2019-01-30T19:41:01.088Z,1.06
2019-01-30T19:43:28.383Z,0.99
2019-01-30T19:45:55.671Z,1.01
2019-01-30T19:48:23.554Z,1.04
2019-01-30T19:50:51.201Z,1.02
2019-01-30T19:53:19.186Z,1.00
2019-01-30T19:55:47.069Z,1.02
2019-01-30T19:58:14.800Z,1.04
2019-01-30T20:00:45.933Z,1.07
2019-01-30T20:03:20.090Z,1.11
2019-01-30T20:05:48.318Z,1.11
2019-01-30T20:08:15.847Z,1.16
2019-01-30T20:10:44.247Z,1.19
2019-01-30T20:13:11.574Z,1.24
2019-01-30T20:15:39.072Z,1.14
2019-01-30T20:18:07.435Z,1.20
2019-01-30T20:20:35.344Z,1.16
2019-01-30T20:23:03.568Z,1.17
2019-01-30T20:25:33.389Z,1.13
2019-01-30T20:28:00.904Z,1.10
2019-01-30T20:30:28.920Z,1.17
2019-01-30T20:32:56.890Z,1.16
2019-01-30T20:35:24.568Z,1.08
2019-01-30T20:37:52.422Z,1.12
2019-01-30T20:40:22.818Z,1.05
2019-01-30T20:42:52.778Z,1.08
2019-01-30T20:45:20.279Z,1.03
2019-01-30T20:47:48.193Z,1.07
2019-01-30T20:50:19.331Z,1.05
2019-01-30T20:52:47.071Z,0.98
2019-01-30T20:55:16.716Z,0.94
2019-01-30T20:57:44.191Z,0.97
2019-01-30T21:00:19.330Z,0.92
2019-01-30T21:02:46.829Z,0.95
2019-01-30T21:05:14.792Z,0.83
2019-01-30T21:07:41.941Z,0.93
2019-01-30T21:10:14.026Z,0.88
2019-01-30T21:12:41.236Z,0.78
2019-01-30T21:15:11.042Z,0.71
2019-01-30T21:17:38.380Z,0.73
2019-01-30T21:20:06.119Z,0.83
2019-01-30T21:22:33.371Z,0.78
2019-01-30T21:25:00.791Z,0.79
2019-01-30T21:27:28.052Z,0.75
2019-01-30T21:29:55.773Z,0.86
2019-01-30T21:32:23.608Z,0.84
2019-01-30T21:34:51.639Z,0.78
2019-01-30T21:37:20.627Z,0.79
2019-01-30T21:39:47.940Z,0.93
2019-01-30T21:42:15.302Z,0.87
2019-01-30T21:44:43.083Z,0.93
2019-01-30T21:47:11.353Z,0.84
2019-01-30T21:49:39.073Z,0.93
2019-01-30T21:52:06.820Z,0.88
2019-01-30T21:54:34.636Z,0.90
2019-01-30T21:57:02.394Z,0.90
2019-01-30T21:59:31.823Z,0.90
2019-01-30T22:02:08.115Z,0.83
2019-01-30T22:04:28.757Z,0.84
2019-01-30T22:06:56.383Z,0.81
2019-01-30T22:09:23.878Z,0.78
2019-01-30T22:11:51.775Z,0.71
2019-01-30T22:14:19.148Z,0.71
2019-01-30T22:16:47.306Z,0.67
2019-01-30T22:19:14.461Z,0.75
2019-01-30T22:21:41.824Z,0.65
2019-01-30T22:24:09.383Z,0.66
2019-01-30T22:26:36.945Z,0.66
2019-01-30T22:29:04.834Z,0.60
2019-01-30T22:31:32.069Z,0.60
2019-01-30T22:33:59.847Z,0.59
2019-01-30T22:36:27.116Z,0.59
2019-01-30T22:38:54.475Z,0.56
2019-01-30T22:41:23.764Z,0.46
2019-01-30T22:43:51.275Z,0.52
2019-01-30T22:46:18.628Z,0.49
2019-01-30T22:48:46.176Z,0.41
2019-01-30T22:51:13.718Z,0.38
2019-01-30T22:53:41.258Z,0.40
2019-01-30T22:56:09.841Z,0.35
2019-01-30T22:58:37.804Z,0.31
2019-01-30T23:01:41.609Z,0.32
2019-01-30T23:04:46.017Z,0.30
2019-01-30T23:07:57.292Z,0.23
2019-01-30T23:10:56.011Z,0.21
2019-01-30T23:13:58.868Z,0.13
2019-01-30T23:17:40.310Z,0.12
2019-01-30T23:20:38.849Z,0.07
2019-01-30T23:24:08.466Z,-0.08
2019-01-30T23:27:09.124Z,-0.02
2019-01-30T23:30:35.677Z,-0.05
2019-01-30T23:34:29.886Z,-0.10
2019-01-30T23:37:39.602Z,-0.06
2019-01-30T23:40:50.345Z,-0.03
2019-01-30T23:44:24.598Z,-0.11
2019-01-30T23:47:51.886Z,-0.13
2019-01-30T23:50:55.898Z,-0.23
2019-01-30T23:54:50.215Z,-0.36
2019-01-30T23:58:03.081Z,-0.29
